Green Bay, Virginia
Current Conditions -  °F | °C
As of 7:15 PM on Wednesday 22 Oct 2014 (Local Time) from KW81 Reporting Station
Scattered Clouds Scattered Clouds  
Wind Chill: 55°   Ceiling: Unl
Heat Index: 55°   Visibility: 10mi
Dew Point: 44°   Wind: 8mph
Humidity: 66%   Direction: 320°NW
Pressure: 29.97"   Gusts: NA
Location:  37.13°N, 78.31°W
Report Text: KW81 222315Z AUTO 32007KT 10SM SCT060 13/07 A2997 RMK AO1 T01260065
Loading
Personal Weather Stations






























Interactive Weather Map
Tropical Storm Tracking
New forecast layout! Learn more

10-Day Weather Forecast

Advertisements
Track Severe Weather on mobile